createdAt,value
2022-10-04T00:02:30.969Z,1.40
2022-10-04T00:05:08.792Z,1.60
2022-10-04T00:07:40.539Z,1.40
2022-10-04T00:10:21.134Z,1.45
2022-10-04T00:12:59.352Z,1.55
2022-10-04T00:15:29.635Z,1.85
2022-10-04T00:18:19.075Z,1.55
2022-10-04T00:20:48.482Z,1.38
2022-10-04T00:23:25.523Z,1.20
2022-10-04T00:26:00.082Z,1.38
2022-10-04T00:28:26.690Z,1.35
2022-10-04T00:31:11.422Z,1.30
2022-10-04T00:33:54.080Z,1.63
2022-10-04T00:36:23.487Z,1.27
2022-10-04T00:39:03.637Z,1.67
2022-10-04T00:41:53.684Z,1.17
2022-10-04T00:45:00.180Z,1.60
2022-10-04T00:47:33.058Z,1.38
2022-10-04T00:50:13.925Z,1.92
2022-10-04T00:52:45.369Z,2.40
2022-10-04T00:55:23.115Z,0.98
2022-10-04T00:57:54.424Z,1.30
2022-10-04T01:00:21.359Z,1.13
2022-10-04T01:03:03.889Z,1.42
2022-10-04T01:05:35.233Z,1.55
2022-10-04T01:08:11.597Z,1.30
2022-10-04T01:10:52.279Z,1.25
2022-10-04T01:13:52.868Z,1.17
2022-10-04T01:16:23.193Z,1.10
2022-10-04T01:18:49.706Z,1.08
2022-10-04T01:21:19.047Z,1.52
2022-10-04T01:23:45.495Z,1.25
2022-10-04T01:26:26.879Z,1.60
2022-10-04T01:28:54.172Z,1.50
2022-10-04T01:31:21.020Z,1.40
2022-10-04T01:33:47.894Z,0.85
2022-10-04T01:36:14.481Z,1.00
2022-10-04T01:38:41.386Z,1.23
2022-10-04T01:41:10.788Z,1.20
2022-10-04T01:43:41.318Z,1.17
2022-10-04T01:46:16.609Z,1.25
2022-10-04T01:48:45.838Z,1.13
2022-10-04T01:51:24.344Z,1.23
2022-10-04T01:53:59.760Z,0.90
2022-10-04T01:56:31.541Z,1.08
2022-10-04T01:59:07.492Z,2.35
2022-10-04T02:02:00.422Z,0.95
2022-10-04T02:04:29.527Z,1.20
2022-10-04T02:06:59.112Z,1.30
2022-10-04T02:09:30.019Z,1.55
2022-10-04T02:11:57.152Z,1.17
2022-10-04T02:14:27.671Z,1.02
2022-10-04T02:16:54.529Z,0.90
2022-10-04T02:19:31.200Z,0.80
2022-10-04T02:21:58.973Z,1.10
2022-10-04T02:24:25.872Z,1.70
2022-10-04T02:26:53.270Z,1.75
2022-10-04T02:29:21.179Z,1.23
2022-10-04T02:31:51.011Z,1.15
2022-10-04T02:34:19.040Z,1.00
2022-10-04T02:36:45.988Z,1.10
2022-10-04T02:39:23.212Z,1.23
2022-10-04T02:41:55.480Z,1.33
2022-10-04T02:44:28.174Z,1.23
2022-10-04T02:47:16.707Z,1.88
2022-10-04T02:49:48.432Z,1.40
2022-10-04T02:52:26.258Z,1.30
2022-10-04T02:55:06.042Z,1.13
2022-10-04T02:57:34.971Z,0.95
2022-10-04T03:00:29.005Z,1.42
2022-10-04T03:03:16.398Z,1.20
2022-10-04T03:05:47.613Z,1.08
2022-10-04T03:08:14.599Z,1.23
2022-10-04T03:10:42.361Z,1.55
2022-10-04T03:13:09.047Z,1.23
2022-10-04T03:15:35.713Z,1.10
2022-10-04T03:18:02.373Z,0.73
2022-10-04T03:20:29.116Z,1.33
2022-10-04T03:22:56.910Z,1.02
2022-10-04T03:25:35.361Z,1.05
2022-10-04T03:28:02.711Z,1.10
2022-10-04T03:30:30.422Z,1.07
2022-10-04T03:32:57.090Z,1.15
2022-10-04T03:35:32.204Z,1.63
2022-10-04T03:37:59.683Z,1.10
2022-10-04T03:40:30.576Z,1.50
2022-10-04T03:42:59.369Z,1.60
2022-10-04T03:45:27.928Z,1.40
2022-10-04T03:48:00.982Z,1.50
2022-10-04T03:50:35.347Z,1.50
2022-10-04T03:53:08.078Z,1.48
2022-10-04T03:55:38.463Z,1.65
2022-10-04T03:58:05.571Z,1.15
2022-10-04T04:00:34.904Z,1.30
2022-10-04T04:03:07.241Z,1.27
2022-10-04T04:05:57.731Z,1.35
2022-10-04T04:08:32.584Z,1.20
2022-10-04T04:11:02.808Z,1.20
2022-10-04T04:13:45.834Z,1.55
2022-10-04T04:16:12.836Z,1.48
2022-10-04T04:18:43.332Z,1.58
2022-10-04T04:21:13.334Z,2.15
2022-10-04T04:23:46.859Z,1.52
2022-10-04T04:26:17.962Z,1.88
2022-10-04T04:28:46.341Z,1.88
2022-10-04T04:31:23.276Z,1.23
2022-10-04T04:34:18.739Z,1.70
2022-10-04T04:36:45.524Z,1.30
2022-10-04T04:39:14.672Z,1.58
2022-10-04T04:41:41.386Z,1.40
2022-10-04T04:44:17.951Z,1.42
2022-10-04T04:46:46.407Z,2.15
2022-10-04T04:49:16.734Z,1.70
2022-10-04T04:51:49.435Z,1.70
2022-10-04T04:54:17.316Z,1.80
2022-10-04T04:56:44.402Z,2.22
2022-10-04T04:59:12.243Z,1.70
2022-10-04T05:01:44.662Z,2.10
2022-10-04T05:04:11.709Z,1.95
2022-10-04T05:06:58.706Z,1.70
2022-10-04T05:09:38.218Z,2.30
2022-10-04T05:12:10.141Z,3.03
2022-10-04T05:14:45.383Z,3.50
2022-10-04T05:17:20.097Z,4.13
2022-10-04T05:19:46.883Z,6.45
2022-10-04T05:22:18.949Z,9.90
2022-10-04T05:24:48.614Z,6.38
2022-10-04T05:27:23.007Z,5.47
2022-10-04T05:30:00.220Z,3.92
2022-10-04T05:32:51.076Z,3.67
2022-10-04T05:35:20.250Z,4.72
2022-10-04T05:38:06.022Z,2.65
2022-10-04T05:40:49.702Z,2.72
2022-10-04T05:43:22.305Z,2.33
2022-10-04T05:46:25.288Z,2.60
2022-10-04T05:48:54.650Z,1.98
2022-10-04T05:51:26.443Z,1.63
2022-10-04T05:53:54.203Z,2.22
2022-10-04T05:56:39.076Z,1.45
2022-10-04T05:59:29.947Z,1.50
2022-10-04T06:02:18.263Z,1.52
2022-10-04T06:05:06.647Z,1.40
2022-10-04T06:08:05.537Z,2.05
2022-10-04T06:10:44.153Z,1.77
2022-10-04T06:13:48.373Z,3.47
2022-10-04T06:16:39.777Z,1.80
2022-10-04T06:19:23.900Z,1.60
2022-10-04T06:21:50.412Z,1.25
2022-10-04T06:24:27.447Z,2.03
2022-10-04T06:27:01.261Z,1.95
2022-10-04T06:29:36.193Z,1.58
2022-10-04T06:32:19.770Z,1.40
2022-10-04T06:35:01.595Z,1.85
2022-10-04T06:37:51.301Z,1.58
2022-10-04T06:40:23.739Z,1.80
2022-10-04T06:43:02.055Z,2.60
2022-10-04T06:45:54.555Z,2.58
2022-10-04T06:48:30.036Z,2.47
2022-10-04T06:50:56.478Z,3.20
2022-10-04T06:53:34.789Z,2.80
2022-10-04T06:56:04.247Z,3.20
2022-10-04T06:58:36.880Z,2.60
2022-10-04T07:01:14.630Z,2.72
2022-10-04T07:03:51.770Z,2.58
2022-10-04T07:06:27.728Z,2.87
2022-10-04T07:08:55.183Z,2.30
2022-10-04T07:11:32.303Z,2.70
2022-10-04T07:14:11.396Z,2.43
2022-10-04T07:16:46.907Z,3.22
2022-10-04T07:19:19.637Z,2.20
2022-10-04T07:22:12.409Z,2.35
2022-10-04T07:24:50.860Z,2.45
2022-10-04T07:27:22.091Z,2.80
2022-10-04T07:29:54.908Z,2.35
2022-10-04T07:32:29.905Z,2.72
2022-10-04T07:35:14.602Z,2.67
2022-10-04T07:37:55.085Z,2.58
2022-10-04T07:40:33.143Z,2.15
2022-10-04T07:45:39.477Z,2.70
2022-10-04T07:48:16.527Z,2.95
2022-10-04T07:50:50.954Z,2.50
2022-10-04T07:53:42.739Z,2.22
2022-10-04T07:56:43.680Z,2.83
2022-10-04T07:59:25.125Z,2.83
2022-10-04T08:02:48.598Z,3.10
2022-10-04T08:05:28.793Z,2.65
2022-10-04T08:08:32.906Z,3.00
2022-10-04T08:11:15.415Z,2.55
2022-10-04T08:13:57.819Z,2.65
2022-10-04T08:16:37.152Z,3.08
2022-10-04T08:19:21.631Z,2.38
2022-10-04T08:22:05.464Z,2.95
2022-10-04T08:24:58.156Z,2.63
2022-10-04T08:28:05.496Z,2.92
2022-10-04T08:30:50.383Z,2.47
2022-10-04T08:33:30.627Z,2.13
2022-10-04T08:36:17.775Z,2.22
2022-10-04T08:38:49.982Z,2.38
2022-10-04T08:41:19.251Z,2.42
2022-10-04T08:43:57.676Z,3.72
2022-10-04T08:46:39.150Z,2.95
2022-10-04T08:49:28.298Z,2.15
2022-10-04T08:52:32.000Z,2.92
2022-10-04T08:55:23.324Z,2.55
2022-10-04T08:57:55.905Z,2.17
2022-10-04T09:00:43.635Z,3.00
2022-10-04T09:03:45.367Z,3.28
2022-10-04T09:06:32.293Z,2.17
2022-10-04T09:09:26.750Z,2.15
2022-10-04T09:12:11.385Z,2.08
2022-10-04T09:15:12.310Z,1.65
2022-10-04T09:17:54.083Z,1.80
2022-10-04T09:20:38.349Z,2.08
2022-10-04T09:23:39.462Z,2.47
2022-10-04T09:26:23.060Z,2.53
2022-10-04T09:29:26.673Z,2.30
2022-10-04T09:32:17.326Z,2.17
2022-10-04T09:35:12.912Z,1.80
2022-10-04T09:38:14.854Z,2.90
2022-10-04T09:41:13.842Z,2.65
2022-10-04T09:44:17.881Z,2.13
2022-10-04T09:46:53.293Z,3.00
2022-10-04T09:49:25.490Z,2.47
2022-10-04T09:52:19.744Z,2.08
2022-10-04T09:55:01.448Z,2.10
2022-10-04T09:57:53.145Z,1.83
2022-10-04T10:00:58.881Z,2.00
2022-10-04T10:03:53.049Z,1.75
2022-10-04T10:06:41.891Z,2.35
2022-10-04T10:09:27.474Z,2.05
2022-10-04T10:12:22.455Z,1.50
2022-10-04T10:15:24.502Z,2.88
2022-10-04T10:18:13.534Z,2.10
2022-10-04T10:20:49.227Z,2.78
2022-10-04T10:23:31.644Z,1.92
2022-10-04T10:26:19.073Z,2.30
2022-10-04T10:29:15.709Z,2.17
2022-10-04T10:32:00.396Z,1.60
2022-10-04T10:35:05.779Z,1.63
2022-10-04T10:38:04.925Z,1.73
2022-10-04T10:40:48.172Z,2.00
2022-10-04T10:43:35.437Z,1.23
2022-10-04T10:46:23.592Z,1.95
2022-10-04T10:49:24.110Z,1.70
2022-10-04T10:52:28.135Z,1.85
2022-10-04T10:55:15.968Z,2.33
2022-10-04T11:01:03.264Z,1.70
2022-10-04T11:04:11.222Z,2.28
2022-10-04T11:07:04.100Z,2.95
2022-10-04T11:10:17.500Z,2.13
2022-10-04T11:12:51.924Z,1.40
2022-10-04T11:15:49.457Z,1.88
2022-10-04T11:18:25.254Z,2.00
2022-10-04T11:20:54.709Z,2.03
2022-10-04T11:23:56.886Z,1.65
2022-10-04T11:26:47.847Z,1.55
2022-10-04T11:29:23.547Z,1.45
2022-10-04T11:32:15.563Z,2.75
2022-10-04T11:35:29.271Z,1.38
2022-10-04T11:38:24.839Z,2.05
2022-10-04T11:41:09.184Z,1.48
2022-10-04T11:43:57.010Z,1.52
2022-10-04T11:49:13.160Z,1.23
2022-10-04T11:52:10.821Z,1.30
2022-10-04T11:57:39.976Z,1.27
2022-10-04T12:00:18.098Z,1.58
2022-10-04T12:02:49.175Z,1.65
2022-10-04T12:05:34.027Z,1.67
2022-10-04T12:08:15.031Z,1.30
2022-10-04T12:10:49.361Z,1.45
2022-10-04T12:13:33.727Z,1.30
2022-10-04T12:16:30.555Z,2.25
2022-10-04T12:19:15.596Z,1.67
2022-10-04T12:22:03.332Z,1.80
2022-10-04T12:26:59.174Z,1.63
2022-10-04T12:29:25.617Z,2.10
2022-10-04T12:31:58.653Z,1.55
2022-10-04T12:34:39.061Z,1.70
2022-10-04T12:37:16.595Z,1.85
2022-10-04T12:39:52.244Z,1.52
2022-10-04T12:42:55.151Z,1.40
2022-10-04T12:45:48.593Z,1.42
2022-10-04T12:48:57.216Z,1.60
2022-10-04T12:51:37.240Z,1.58
2022-10-04T12:54:36.512Z,1.52
2022-10-04T12:57:12.011Z,1.63
2022-10-04T13:00:05.204Z,1.88
2022-10-04T13:02:34.389Z,1.45
2022-10-04T13:05:16.853Z,1.48
2022-10-04T13:08:04.556Z,2.15
2022-10-04T13:13:49.516Z,1.77
2022-10-04T13:19:17.278Z,1.85
2022-10-04T13:22:51.454Z,1.48
2022-10-04T13:25:26.907Z,1.77
2022-10-04T13:28:17.093Z,2.08
2022-10-04T13:30:52.921Z,2.35
2022-10-04T13:33:50.791Z,1.00
2022-10-04T13:36:49.145Z,1.83
2022-10-04T13:39:49.599Z,1.10
2022-10-04T13:42:19.118Z,1.67
2022-10-04T13:44:51.351Z,1.98
2022-10-04T13:48:02.676Z,1.75
2022-10-04T13:50:44.822Z,1.85
2022-10-04T13:54:02.684Z,1.05
2022-10-04T13:56:35.203Z,1.23
2022-10-04T13:59:23.616Z,1.30
2022-10-04T14:02:10.300Z,1.73
2022-10-04T14:05:18.059Z,1.40
2022-10-04T14:08:09.105Z,1.60
2022-10-04T14:11:00.230Z,1.70
2022-10-04T14:13:45.547Z,1.65
2022-10-04T14:16:30.563Z,1.80
2022-10-04T14:19:28.790Z,1.35
2022-10-04T14:22:19.566Z,1.73
2022-10-04T14:25:18.864Z,1.08
2022-10-04T14:28:14.144Z,1.35
2022-10-04T14:30:53.267Z,1.08
2022-10-04T14:33:38.556Z,1.48
2022-10-04T14:36:28.800Z,1.00
2022-10-04T14:39:03.765Z,1.10
2022-10-04T14:41:45.880Z,1.10
2022-10-04T14:44:21.263Z,1.52
2022-10-04T14:46:50.503Z,1.60
2022-10-04T14:49:25.061Z,1.80
2022-10-04T14:52:10.665Z,1.83
2022-10-04T14:54:50.458Z,1.73
2022-10-04T14:57:45.156Z,1.67
2022-10-04T15:00:23.822Z,1.67
2022-10-04T15:03:11.735Z,1.73
2022-10-04T15:05:53.401Z,1.40
2022-10-04T15:08:22.697Z,1.77
2022-10-04T15:10:54.770Z,1.58
2022-10-04T15:13:32.509Z,2.05
2022-10-04T15:16:13.873Z,1.83
2022-10-04T15:19:04.220Z,2.08
2022-10-04T15:21:43.928Z,4.82
2022-10-04T15:24:31.380Z,10.88
2022-10-04T15:27:35.241Z,11.00
2022-10-04T15:30:01.733Z,5.90
2022-10-04T15:32:48.688Z,4.20
2022-10-04T15:35:24.224Z,2.87
2022-10-04T15:38:04.721Z,2.10
2022-10-04T15:41:13.651Z,2.67
2022-10-04T15:43:45.451Z,1.70
2022-10-04T15:46:42.928Z,1.65
2022-10-04T15:52:06.729Z,2.08
2022-10-04T15:55:01.770Z,1.70
2022-10-04T15:58:01.412Z,1.58
2022-10-04T16:01:06.945Z,1.88
2022-10-04T16:03:54.441Z,1.65
2022-10-04T16:06:34.186Z,1.80
2022-10-04T16:09:12.688Z,1.73
2022-10-04T16:11:57.952Z,1.80
2022-10-04T16:14:37.581Z,1.90
2022-10-04T16:17:28.311Z,2.00
2022-10-04T16:20:13.637Z,1.52
2022-10-04T16:22:40.331Z,1.45
2022-10-04T16:25:24.841Z,1.60
2022-10-04T16:27:57.570Z,1.80
2022-10-04T16:30:33.431Z,3.55
2022-10-04T16:33:29.618Z,4.53
2022-10-04T16:36:09.883Z,7.20
2022-10-04T16:38:45.139Z,6.47
2022-10-04T16:41:16.018Z,6.18
2022-10-04T16:43:56.546Z,3.95
2022-10-04T16:46:36.377Z,2.80
2022-10-04T16:49:20.899Z,1.75
2022-10-04T16:52:00.748Z,2.72
2022-10-04T16:54:38.939Z,1.50
2022-10-04T16:57:16.831Z,2.20
2022-10-04T17:02:34.431Z,3.00
2022-10-04T17:05:20.951Z,4.00
2022-10-04T17:08:20.686Z,4.07
2022-10-04T17:10:50.105Z,4.43
2022-10-04T17:13:46.958Z,3.50
2022-10-04T17:16:35.836Z,2.43
2022-10-04T17:19:25.583Z,2.90
2022-10-04T17:21:52.018Z,2.47
2022-10-04T17:24:41.816Z,2.70
2022-10-04T17:27:08.277Z,2.40
2022-10-04T17:29:46.917Z,2.95
2022-10-04T17:32:22.790Z,3.10
2022-10-04T17:35:12.165Z,2.72
2022-10-04T17:37:44.302Z,3.00
2022-10-04T17:40:27.635Z,3.13
2022-10-04T17:43:20.523Z,3.08
2022-10-04T17:46:02.067Z,2.58
2022-10-04T17:48:31.635Z,3.17
2022-10-04T17:51:16.840Z,3.70
2022-10-04T17:53:48.971Z,4.47
2022-10-04T17:56:27.357Z,3.13
2022-10-04T17:58:55.963Z,3.45
2022-10-04T18:01:54.748Z,2.83
2022-10-04T18:04:27.300Z,3.22
2022-10-04T18:07:09.721Z,2.70
2022-10-04T18:09:52.425Z,2.67
2022-10-04T18:13:04.905Z,3.03
2022-10-04T18:15:42.030Z,3.15
2022-10-04T18:18:14.967Z,2.83
2022-10-04T18:20:56.271Z,3.15
2022-10-04T18:23:26.983Z,3.28
2022-10-04T18:25:58.643Z,3.67
2022-10-04T18:28:25.876Z,3.70
2022-10-04T18:30:53.919Z,4.93
2022-10-04T18:33:26.443Z,4.90
2022-10-04T18:36:02.615Z,4.30
2022-10-04T18:38:31.334Z,3.33
2022-10-04T18:41:02.963Z,3.75
2022-10-04T18:43:35.045Z,3.03
2022-10-04T18:46:05.350Z,3.75
2022-10-04T18:48:50.946Z,3.08
2022-10-04T18:51:37.633Z,2.72
2022-10-04T18:54:28.903Z,2.97
2022-10-04T18:57:21.365Z,3.70
2022-10-04T19:00:02.374Z,3.30
2022-10-04T19:02:53.537Z,3.38
2022-10-04T19:05:30.364Z,2.75
2022-10-04T19:08:04.333Z,3.38
2022-10-04T19:11:11.671Z,3.78
2022-10-04T19:14:02.667Z,4.55
2022-10-04T19:16:54.533Z,4.57
2022-10-04T19:19:29.738Z,3.88
2022-10-04T19:22:16.543Z,3.75
2022-10-04T19:25:05.394Z,3.60
2022-10-04T19:27:52.127Z,3.53
2022-10-04T19:30:27.455Z,4.25
2022-10-04T19:33:01.858Z,3.13
2022-10-04T19:35:57.497Z,3.85
2022-10-04T19:38:43.316Z,2.80
2022-10-04T19:41:24.353Z,3.80
2022-10-04T19:44:15.101Z,4.40
2022-10-04T19:47:08.102Z,3.70
2022-10-04T19:49:43.972Z,4.15
2022-10-04T19:52:19.003Z,3.63
2022-10-04T19:54:45.588Z,3.97
2022-10-04T19:57:13.457Z,3.40
2022-10-04T19:59:41.644Z,3.50
2022-10-04T20:04:37.382Z,3.35
2022-10-04T20:07:18.313Z,3.88
2022-10-04T20:09:44.763Z,4.63
2022-10-04T20:12:37.801Z,3.75
2022-10-04T20:15:16.417Z,3.75
2022-10-04T20:17:44.699Z,3.72
2022-10-04T20:20:35.481Z,3.28
2022-10-04T20:23:02.192Z,3.70
2022-10-04T20:25:43.998Z,2.83
2022-10-04T20:28:26.279Z,2.75
2022-10-04T20:30:57.578Z,2.90
2022-10-04T20:33:36.259Z,2.90
2022-10-04T20:36:02.776Z,2.67
2022-10-04T20:38:50.110Z,3.20
2022-10-04T20:41:28.673Z,2.80
2022-10-04T20:44:00.594Z,3.45
2022-10-04T20:46:33.475Z,3.13
2022-10-04T20:49:02.448Z,3.83
2022-10-04T20:51:30.738Z,3.10
2022-10-04T20:53:57.273Z,4.30
2022-10-04T20:56:30.340Z,5.35
2022-10-04T20:58:59.816Z,4.50
2022-10-04T21:01:28.916Z,4.03
2022-10-04T21:04:28.614Z,5.60
2022-10-04T21:07:06.268Z,3.80
2022-10-04T21:09:37.708Z,3.58
2022-10-04T21:12:05.763Z,4.22
2022-10-04T21:14:35.477Z,3.50
2022-10-04T21:17:22.993Z,4.97
2022-10-04T21:19:49.486Z,5.95
2022-10-04T21:22:15.914Z,6.30
2022-10-04T21:24:52.920Z,9.65
2022-10-04T21:27:35.734Z,8.23
2022-10-04T21:30:08.180Z,7.32
2022-10-04T21:32:36.796Z,7.20
2022-10-04T21:35:05.403Z,6.53
2022-10-04T21:37:32.671Z,7.00
2022-10-04T21:40:02.814Z,6.82
2022-10-04T21:42:29.329Z,8.38
2022-10-04T21:44:55.830Z,8.93
2022-10-04T21:47:22.613Z,11.43
2022-10-04T21:49:50.278Z,10.13
2022-10-04T21:52:16.715Z,11.30
2022-10-04T21:54:43.367Z,10.77
2022-10-04T21:57:10.416Z,9.25
2022-10-04T21:59:36.997Z,7.80
2022-10-04T22:02:03.682Z,9.32
2022-10-04T22:04:30.263Z,7.80
2022-10-04T22:06:56.772Z,6.32
2022-10-04T22:09:23.227Z,6.45
2022-10-04T22:11:49.705Z,5.70
2022-10-04T22:14:16.367Z,4.28
2022-10-04T22:16:42.982Z,4.40
2022-10-04T22:19:09.537Z,5.07
2022-10-04T22:21:36.035Z,6.25
2022-10-04T22:24:04.044Z,4.93
2022-10-04T22:26:31.188Z,2.92
2022-10-04T22:28:57.871Z,2.75
2022-10-04T22:31:29.176Z,2.17
2022-10-04T22:33:56.587Z,1.55
2022-10-04T22:36:37.819Z,1.93
2022-10-04T22:39:14.381Z,2.40
2022-10-04T22:41:55.503Z,1.75
2022-10-04T22:44:29.953Z,2.22
2022-10-04T22:47:00.184Z,2.10
2022-10-04T22:49:37.314Z,2.17
2022-10-04T22:52:13.286Z,1.77
2022-10-04T22:54:45.981Z,1.88
2022-10-04T22:57:14.774Z,1.95
2022-10-04T22:59:52.400Z,1.50
2022-10-04T23:02:29.193Z,1.80
2022-10-04T23:05:12.061Z,2.38
2022-10-04T23:07:38.846Z,1.90
2022-10-04T23:10:06.288Z,2.22
2022-10-04T23:12:33.135Z,1.87
2022-10-04T23:15:01.756Z,1.77
2022-10-04T23:17:39.527Z,1.90
2022-10-04T23:20:08.838Z,1.73
2022-10-04T23:22:35.706Z,1.75
2022-10-04T23:25:02.255Z,1.90
2022-10-04T23:27:28.856Z,2.15
2022-10-04T23:30:01.064Z,1.52
2022-10-04T23:32:27.882Z,1.70
2022-10-04T23:34:56.834Z,1.70
2022-10-04T23:37:26.088Z,1.67
2022-10-04T23:43:15.553Z,1.92
2022-10-04T23:45:42.292Z,1.63
2022-10-04T23:48:11.231Z,1.75
2022-10-04T23:50:39.263Z,1.88
2022-10-04T23:53:14.299Z,2.00
2022-10-04T23:55:43.996Z,2.03
2022-10-04T23:58:16.391Z,1.90
